Time;durP1;ratioP1;P1;durP2;ratioP2;P2;SDS_P1;SDS_P2;PMS_P1;PMS_P2;Temp;Humidity;BMP_temperature;BMP_pressure;BME280_temperature;BME280_humidity;BME280_pressure;Samples;Min_cycle;Max_cycle;Signal;HPM_P1;HPM_P2
2021/09/02 00:00:47;;;;;;;6.65;4.15;;;17.80;76.20;;;;;;5065049;28;20074;-76
2021/09/02 00:03:12;;;;;;;7.93;4.10;;;17.80;76.30;;;;;;5064912;28;20112;-76
2021/09/02 00:05:38;;;;;;;7.05;4.68;;;17.90;76.40;;;;;;5065055;28;20032;-76
2021/09/02 00:08:04;;;;;;;6.43;4.78;;;17.80;76.40;;;;;;5065068;28;20191;-76
2021/09/02 00:10:30;;;;;;;6.13;5.00;;;17.90;76.60;;;;;;5032896;28;20026;-76
2021/09/02 00:12:55;;;;;;;4.90;4.25;;;17.90;76.60;;;;;;5064771;28;20052;-76
2021/09/02 00:15:22;;;;;;;8.00;4.75;;;17.80;76.70;;;;;;5032957;28;20472;-76
2021/09/02 00:17:48;;;;;;;6.10;4.35;;;17.80;76.80;;;;;;5031536;28;20445;-76
2021/09/02 00:20:14;;;;;;;5.45;4.30;;;17.80;77.00;;;;;;5064965;28;20026;-76
2021/09/02 00:22:40;;;;;;;5.55;4.28;;;17.80;77.10;;;;;;5032419;28;20422;-76
2021/09/02 00:25:06;;;;;;;5.75;4.22;;;17.80;77.20;;;;;;5064805;28;20108;-76
2021/09/02 00:27:31;;;;;;;6.22;4.28;;;17.70;77.30;;;;;;5064456;28;20022;-76
2021/09/02 00:30:00;;;;;;;8.35;4.90;;;17.70;77.40;;;;;;5066680;28;20026;-77
2021/09/02 00:32:26;;;;;;;9.35;4.70;;;17.70;77.60;;;;;;5054527;28;20033;-76
2021/09/02 00:34:52;;;;;;;6.63;4.75;;;17.70;77.60;;;;;;5054388;28;20050;-76
2021/09/02 00:37:17;;;;;;;7.20;4.80;;;17.60;77.60;;;;;;5054641;28;20032;-77
2021/09/02 00:39:43;;;;;;;7.45;5.13;;;17.70;77.80;;;;;;5054474;28;20027;-76
2021/09/02 00:42:08;;;;;;;5.85;4.70;;;17.70;77.90;;;;;;5054533;28;20017;-76
2021/09/02 00:44:40;;;;;;;8.48;5.00;;;17.60;77.90;;;;;;5054367;28;20024;-76
2021/09/02 00:47:08;;;;;;;8.63;5.43;;;17.60;77.90;;;;;;5054421;28;20109;-76
2021/09/02 00:49:35;;;;;;;6.55;5.10;;;17.60;78.00;;;;;;5054356;28;20383;-76
2021/09/02 00:52:22;;;;;;;8.57;4.70;;;17.60;78.00;;;;;;5058369;28;20064;-76
2021/09/02 00:54:52;;;;;;;10.20;5.47;;;17.60;78.10;;;;;;5058479;28;20032;-76
2021/09/02 00:57:19;;;;;;;6.32;5.25;;;17.60;78.10;;;;;;5091940;28;20021;-76
2021/09/02 00:59:46;;;;;;;8.25;5.03;;;17.60;78.30;;;;;;5058536;28;20024;-76
2021/09/02 01:02:11;;;;;;;7.15;4.85;;;17.50;78.30;;;;;;5058266;28;20069;-76
2021/09/02 01:04:37;;;;;;;8.65;5.03;;;17.50;78.30;;;;;;5058117;28;20055;-76
2021/09/02 01:07:04;;;;;;;8.02;4.90;;;17.50;78.50;;;;;;5076133;28;20052;-76
2021/09/02 01:09:32;;;;;;;8.60;5.47;;;17.40;78.50;;;;;;5076021;28;20050;-76
2021/09/02 01:11:57;;;;;;;9.38;5.35;;;17.40;78.60;;;;;;5058160;28;20035;-76
2021/09/02 01:14:23;;;;;;;9.18;5.18;;;17.40;78.60;;;;;;5075969;28;20451;-76
2021/09/02 01:16:50;;;;;;;11.25;5.65;;;17.40;78.60;;;;;;5058003;28;20021;-76
2021/09/02 01:19:22;;;;;;;7.50;4.70;;;17.40;78.70;;;;;;5058000;28;20058;-76
2021/09/02 01:21:48;;;;;;;6.53;4.23;;;17.30;78.60;;;;;;5057955;28;20016;-76
2021/09/02 01:24:15;;;;;;;6.15;4.55;;;17.30;78.60;;;;;;5075921;28;20274;-76
2021/09/02 01:26:42;;;;;;;8.45;5.43;;;17.30;78.70;;;;;;5057748;28;20027;-75
2021/09/02 01:29:11;;;;;;;8.90;4.85;;;17.30;78.70;;;;;;5058123;28;20435;-77
2021/09/02 01:31:38;;;;;;;7.38;4.65;;;17.20;78.70;;;;;;5057604;28;20097;-76
2021/09/02 01:34:04;;;;;;;6.05;4.88;;;17.20;78.70;;;;;;5057778;28;20028;-76
2021/09/02 01:36:29;;;;;;;7.18;4.80;;;17.20;78.80;;;;;;5057628;28;20028;-76
2021/09/02 01:38:56;;;;;;;8.70;5.00;;;17.20;78.80;;;;;;5057631;28;20154;-76
2021/09/02 01:41:21;;;;;;;8.18;4.65;;;17.10;78.80;;;;;;5075501;28;20054;-76
2021/09/02 01:43:50;;;;;;;6.72;4.70;;;17.10;78.80;;;;;;5057428;28;20026;-76
2021/09/02 01:46:16;;;;;;;7.15;4.78;;;17.10;78.90;;;;;;5057462;28;20020;-76
2021/09/02 01:48:42;;;;;;;5.55;4.50;;;17.10;78.90;;;;;;5057340;28;20055;-76
2021/09/02 01:51:07;;;;;;;5.32;4.72;;;17.10;79.00;;;;;;5057293;28;20107;-76
2021/09/02 01:53:33;;;;;;;5.93;4.60;;;17.00;79.00;;;;;;5057399;28;20031;-76
2021/09/02 01:55:58;;;;;;;8.45;4.90;;;17.00;79.10;;;;;;5057197;28;20055;-76
2021/09/02 01:58:24;;;;;;;7.68;4.70;;;17.00;79.30;;;;;;5057251;28;20072;-75
2021/09/02 02:00:50;;;;;;;6.15;4.68;;;17.00;79.30;;;;;;5075111;28;20032;-76
2021/09/02 02:03:16;;;;;;;6.93;4.68;;;17.00;79.30;;;;;;5056535;28;20050;-76
2021/09/02 02:05:42;;;;;;;6.95;4.55;;;17.00;79.40;;;;;;5075351;28;20385;-78
2021/09/02 02:08:15;;;;;;;8.45;4.90;;;17.00;79.40;;;;;;5075027;28;20017;-78
2021/09/02 02:10:41;;;;;;;8.48;5.38;;;17.00;79.50;;;;;;5074942;28;20046;-78
2021/09/02 02:13:06;;;;;;;9.00;4.47;;;17.00;79.50;;;;;;5057103;28;20547;-77
2021/09/02 02:15:32;;;;;;;7.15;4.50;;;17.00;79.50;;;;;;5074736;28;20051;-78
2021/09/02 02:17:58;;;;;;;8.32;4.75;;;17.00;79.60;;;;;;5056749;28;20072;-78
2021/09/02 02:20:24;;;;;;;10.52;5.10;;;16.90;79.60;;;;;;5056859;28;20016;-78
2021/09/02 02:22:49;;;;;;;5.50;4.40;;;16.90;79.80;;;;;;5056678;28;20427;-78
2021/09/02 02:25:16;;;;;;;6.32;4.95;;;16.90;79.90;;;;;;5056728;28;20082;-78
2021/09/02 02:27:43;;;;;;;6.70;4.80;;;16.80;80.00;;;;;;5074863;28;20020;-78
2021/09/02 02:30:12;;;;;;;5.75;4.55;;;16.80;80.00;;;;;;5074467;28;20090;-78
2021/09/02 02:32:38;;;;;;;6.93;4.72;;;16.80;80.10;;;;;;5056400;28;20491;-78
2021/09/02 02:35:04;;;;;;;6.38;4.30;;;16.80;80.10;;;;;;5074411;28;20078;-76
2021/09/02 02:37:30;;;;;;;6.20;4.50;;;16.80;80.20;;;;;;5056330;28;20404;-76
2021/09/02 02:39:56;;;;;;;7.05;5.00;;;16.80;80.20;;;;;;5056490;28;20074;-76
2021/09/02 02:42:22;;;;;;;10.82;5.00;;;16.80;80.20;;;;;;5074263;28;20028;-76
2021/09/02 02:44:47;;;;;;;5.82;4.13;;;16.80;80.20;;;;;;5056198;28;20032;-76
2021/09/02 02:47:14;;;;;;;8.27;4.70;;;16.80;80.30;;;;;;5056247;28;20101;-76
2021/09/02 02:49:40;;;;;;;6.28;4.40;;;16.90;80.30;;;;;;5056136;28;20032;-76
2021/09/02 02:52:06;;;;;;;6.00;4.03;;;16.90;80.30;;;;;;5056186;28;20024;-76
2021/09/02 02:54:32;;;;;;;5.68;4.70;;;16.90;80.30;;;;;;5056142;28;20028;-76
2021/09/02 02:56:58;;;;;;;7.75;4.35;;;16.90;80.20;;;;;;5056077;28;20506;-77
2021/09/02 02:59:23;;;;;;;7.05;4.80;;;17.00;80.20;;;;;;5074343;28;20055;-75
2021/09/02 03:01:49;;;;;;;6.45;4.20;;;17.00;80.20;;;;;;5055968;28;20086;-75
2021/09/02 03:04:15;;;;;;;6.63;4.63;;;17.00;80.20;;;;;;5056249;28;20032;-75
2021/09/02 03:06:40;;;;;;;7.07;4.72;;;17.00;80.20;;;;;;5073748;28;20063;-76
2021/09/02 03:09:06;;;;;;;6.85;5.00;;;17.00;80.40;;;;;;5055736;28;20032;-76
2021/09/02 03:11:32;;;;;;;6.85;5.20;;;17.00;80.40;;;;;;5073627;28;20108;-76
2021/09/02 03:13:58;;;;;;;7.93;5.40;;;16.90;80.50;;;;;;5054524;28;20082;-76
2021/09/02 03:16:23;;;;;;;7.10;5.47;;;16.90;80.50;;;;;;5055504;28;20040;-76
2021/09/02 03:18:49;;;;;;;8.95;4.95;;;16.90;80.70;;;;;;5055622;28;20074;-76
2021/09/02 03:21:15;;;;;;;6.55;5.10;;;16.90;80.70;;;;;;5055474;28;20499;-76
2021/09/02 03:23:41;;;;;;;7.30;5.57;;;16.90;80.70;;;;;;5055599;28;20369;-76
2021/09/02 03:26:06;;;;;;;8.07;4.90;;;16.90;80.80;;;;;;5055527;28;20025;-75
2021/09/02 03:28:32;;;;;;;7.18;5.07;;;16.90;80.80;;;;;;5055778;28;20108;-77
2021/09/02 03:30:58;;;;;;;8.00;4.95;;;16.90;80.80;;;;;;5055150;28;20403;-76
2021/09/02 03:33:24;;;;;;;6.70;4.93;;;16.90;80.80;;;;;;5055261;28;20025;-76
2021/09/02 03:35:50;;;;;;;7.40;5.25;;;16.90;80.70;;;;;;5055174;28;20135;-76
2021/09/02 03:38:15;;;;;;;7.07;4.93;;;16.90;80.80;;;;;;5055285;28;20484;-76
2021/09/02 03:40:41;;;;;;;7.10;4.97;;;16.90;80.80;;;;;;5055062;28;20036;-76
2021/09/02 03:46:29;;;;;;;6.82;4.78;;;17.00;80.90;;;;;;5073535;28;20110;-76
2021/09/02 03:48:54;;;;;;;7.78;4.95;;;16.90;80.80;;;;;;5073056;28;20020;-76
2021/09/02 03:51:20;;;;;;;5.75;4.82;;;16.90;80.80;;;;;;5054927;28;20074;-75
2021/09/02 03:53:46;;;;;;;9.50;4.72;;;16.90;80.80;;;;;;5072877;28;20032;-76
2021/09/02 03:56:11;;;;;;;6.65;4.97;;;17.00;80.90;;;;;;5054816;28;20514;-76
2021/09/02 03:58:39;;;;;;;6.28;4.75;;;17.00;80.90;;;;;;5054890;28;20458;-76
2021/09/02 04:01:05;;;;;;;7.20;5.20;;;17.00;80.80;;;;;;5054703;28;20020;-76
2021/09/02 04:03:31;;;;;;;7.82;5.30;;;17.00;80.80;;;;;;5054812;28;20028;-76
2021/09/02 04:05:56;;;;;;;7.35;4.93;;;17.00;80.80;;;;;;5054785;28;20115;-76
2021/09/02 04:08:22;;;;;;;8.50;4.78;;;17.00;80.80;;;;;;5054681;28;20025;-76
2021/09/02 04:10:48;;;;;;;6.25;4.53;;;17.00;80.80;;;;;;5054982;28;20103;-76
2021/09/02 04:13:13;;;;;;;7.75;5.22;;;17.00;80.80;;;;;;5054780;28;20028;-76
2021/09/02 04:15:39;;;;;;;7.68;5.10;;;17.00;80.70;;;;;;5054424;28;20075;-76
2021/09/02 04:18:05;;;;;;;10.05;5.38;;;17.00;80.70;;;;;;5054872;28;20441;-75
2021/09/02 04:20:30;;;;;;;7.88;4.88;;;17.00;80.70;;;;;;5072491;28;20025;-76
2021/09/02 04:22:56;;;;;;;6.65;5.13;;;17.00;80.70;;;;;;5054628;28;20035;-76
2021/09/02 04:25:21;;;;;;;6.68;4.88;;;17.00;80.60;;;;;;5072080;28;20536;-75
2021/09/02 04:27:47;;;;;;;8.73;5.18;;;17.00;80.60;;;;;;5054467;28;20055;-76
2021/09/02 04:30:13;;;;;;;6.97;4.82;;;17.00;80.60;;;;;;5054322;28;20400;-75
2021/09/02 04:32:43;;;;;;;9.00;5.28;;;16.90;80.60;;;;;;5054530;28;20020;-76
2021/09/02 04:35:10;;;;;;;7.85;4.88;;;16.90;80.60;;;;;;5054321;28;20034;-76
2021/09/02 04:37:41;;;;;;;8.63;4.88;;;16.90;80.70;;;;;;5054611;28;20025;-75
2021/09/02 04:40:56;;;;;;;12.00;5.30;;;16.90;80.70;;;;;;5054532;28;20103;-76
2021/09/02 04:43:22;;;;;;;7.32;4.53;;;16.80;80.70;;;;;;5054182;28;20032;-76
2021/09/02 04:45:48;;;;;;;7.25;4.97;;;16.90;80.80;;;;;;5054289;28;20039;-75
2021/09/02 04:48:18;;;;;;;5.57;4.38;;;16.80;80.70;;;;;;5072315;28;20025;-76
2021/09/02 04:50:46;;;;;;;6.97;5.07;;;16.80;80.70;;;;;;5085185;28;20041;-76
2021/09/02 04:53:13;;;;;;;8.07;4.90;;;16.80;80.70;;;;;;5054198;28;20060;-76
2021/09/02 04:55:39;;;;;;;7.65;4.70;;;16.90;80.80;;;;;;5054206;28;20488;-76
2021/09/02 04:58:05;;;;;;;8.43;4.80;;;16.80;80.70;;;;;;5054203;28;20412;-76
2021/09/02 05:00:32;;;;;;;7.88;5.13;;;16.90;80.80;;;;;;5054125;28;20032;-76
2021/09/02 05:02:58;;;;;;;6.35;4.60;;;16.80;80.70;;;;;;5054083;28;20033;-76
2021/09/02 05:05:23;;;;;;;7.20;4.97;;;16.80;80.70;;;;;;5054154;28;20039;-76
2021/09/02 05:07:49;;;;;;;7.28;4.82;;;16.80;80.70;;;;;;5072154;28;20108;-75
2021/09/02 05:10:15;;;;;;;7.72;4.43;;;16.80;80.80;;;;;;5053973;28;20037;-75
2021/09/02 05:12:40;;;;;;;6.45;4.35;;;16.80;80.70;;;;;;5051214;28;20040;-75
2021/09/02 05:15:06;;;;;;;5.40;3.88;;;16.80;80.70;;;;;;5053904;28;20033;-75
2021/09/02 05:17:32;;;;;;;8.27;4.55;;;16.80;80.80;;;;;;5053971;28;20028;-75
2021/09/02 05:19:58;;;;;;;6.35;4.20;;;16.80;80.80;;;;;;5072036;28;20035;-75
2021/09/02 05:22:23;;;;;;;7.13;4.40;;;16.80;80.80;;;;;;5072251;28;20056;-75
2021/09/02 05:24:49;;;;;;;7.75;4.55;;;16.80;80.80;;;;;;5053931;28;20105;-76
2021/09/02 05:27:15;;;;;;;7.32;4.57;;;16.80;80.70;;;;;;5053949;28;20721;-75
2021/09/02 05:29:41;;;;;;;6.10;4.00;;;16.80;80.70;;;;;;5053909;28;20020;-75
2021/09/02 05:32:07;;;;;;;8.15;4.20;;;16.80;80.70;;;;;;5071553;28;20048;-75
2021/09/02 05:34:32;;;;;;;4.80;3.67;;;16.80;80.60;;;;;;5050998;28;20055;-76
2021/09/02 05:36:58;;;;;;;6.13;3.80;;;16.80;80.60;;;;;;5072410;28;20032;-76
2021/09/02 05:39:24;;;;;;;6.63;3.80;;;16.80;80.60;;;;;;5057340;28;20028;-75
2021/09/02 05:41:50;;;;;;;6.50;4.00;;;16.80;80.60;;;;;;5057686;28;20028;-76
2021/09/02 05:44:16;;;;;;;6.28;3.92;;;16.80;80.50;;;;;;5057184;28;20422;-76
2021/09/02 05:46:42;;;;;;;5.95;3.55;;;16.80;80.40;;;;;;5057261;28;20021;-76
2021/09/02 05:49:08;;;;;;;6.07;3.72;;;16.80;80.40;;;;;;5090834;28;20097;-75
2021/09/02 05:51:33;;;;;;;6.60;3.50;;;16.80;80.40;;;;;;5057232;28;20425;-75
2021/09/02 05:53:59;;;;;;;5.97;3.55;;;16.80;80.60;;;;;;5057141;28;20071;-76
2021/09/02 05:56:25;;;;;;;3.63;2.80;;;16.90;80.30;;;;;;5057066;28;20518;-76
2021/09/02 05:58:50;;;;;;;4.43;3.28;;;16.90;80.20;;;;;;5057145;28;20116;-76
2021/09/02 06:01:16;;;;;;;5.50;2.72;;;16.90;80.20;;;;;;5057028;28;20425;-75
2021/09/02 06:03:42;;;;;;;6.05;3.03;;;16.90;80.00;;;;;;5057066;28;20028;-76
2021/09/02 06:06:08;;;;;;;4.72;2.95;;;16.90;80.00;;;;;;5075042;28;20036;-77
2021/09/02 06:08:35;;;;;;;6.45;3.38;;;16.90;80.00;;;;;;5075202;28;20031;-76
2021/09/02 06:11:05;;;;;;;5.75;2.72;;;17.00;79.90;;;;;;5074935;28;20142;-76
2021/09/02 06:13:31;;;;;;;3.55;2.72;;;17.00;80.40;;;;;;5056902;28;20028;-76
2021/09/02 06:15:57;;;;;;;3.72;2.83;;;17.00;79.70;;;;;;5056689;28;20077;-76
2021/09/02 06:18:23;;;;;;;4.43;2.90;;;17.00;79.60;;;;;;5056771;28;20157;-76
2021/09/02 06:20:48;;;;;;;5.00;3.10;;;17.00;79.50;;;;;;5056713;28;20028;-76
2021/09/02 06:23:14;;;;;;;4.30;2.60;;;17.00;79.40;;;;;;5056892;28;20119;-76
2021/09/02 06:25:42;;;;;;;6.10;3.08;;;17.10;79.40;;;;;;5056811;28;20032;-76
2021/09/02 06:28:09;;;;;;;5.72;3.00;;;17.10;79.20;;;;;;5074785;28;20036;-76
2021/09/02 06:30:35;;;;;;;4.82;3.22;;;17.00;79.10;;;;;;5056528;28;20122;-76
2021/09/02 06:33:01;;;;;;;4.97;2.55;;;17.00;79.10;;;;;;5056635;28;20042;-76
2021/09/02 06:35:27;;;;;;;5.05;2.65;;;17.00;79.00;;;;;;5074534;28;20025;-76
2021/09/02 06:37:52;;;;;;;5.18;2.33;;;17.00;78.90;;;;;;5074516;28;20025;-76
2021/09/02 06:40:18;;;;;;;3.38;2.38;;;17.10;78.90;;;;;;5056442;28;20028;-76
2021/09/02 06:42:44;;;;;;;5.53;2.70;;;17.10;78.70;;;;;;5056351;28;20021;-76
2021/09/02 06:45:10;;;;;;;4.97;2.58;;;17.10;78.60;;;;;;5074207;28;20033;-76
2021/09/02 06:47:38;;;;;;;3.80;2.60;;;17.10;78.40;;;;;;5056082;28;20103;-76
2021/09/02 06:50:06;;;;;;;3.60;2.65;;;17.10;78.40;;;;;;5074114;28;20107;-76
2021/09/02 06:52:31;;;;;;;3.67;2.55;;;17.10;78.30;;;;;;5056002;28;20021;-76
2021/09/02 06:54:58;;;;;;;4.22;2.47;;;17.10;78.30;;;;;;5056100;28;20028;-76
2021/09/02 06:57:24;;;;;;;3.55;2.38;;;17.10;78.30;;;;;;5073928;28;20035;-76
2021/09/02 06:59:50;;;;;;;3.90;2.40;;;17.20;78.30;;;;;;5055997;28;20016;-76
2021/09/02 07:02:15;;;;;;;3.88;2.40;;;17.10;78.10;;;;;;5073966;28;20031;-76
2021/09/02 07:04:41;;;;;;;4.03;2.55;;;17.20;78.10;;;;;;5073825;28;20438;-76
2021/09/02 07:07:07;;;;;;;6.13;2.47;;;17.20;78.10;;;;;;5055929;28;20033;-76
2021/09/02 07:09:32;;;;;;;5.22;2.75;;;17.20;78.00;;;;;;5055962;28;20029;-76
2021/09/02 07:11:58;;;;;;;4.90;2.63;;;17.20;78.00;;;;;;5055754;28;20492;-76
2021/09/02 07:14:24;;;;;;;4.95;2.95;;;17.30;77.90;;;;;;5055738;28;20063;-76
2021/09/02 07:16:50;;;;;;;4.53;2.97;;;17.20;77.70;;;;;;5073599;28;20466;-76
2021/09/02 07:19:16;;;;;;;3.45;2.50;;;17.20;77.60;;;;;;5055682;28;20024;-76
2021/09/02 07:21:41;;;;;;;5.78;2.80;;;17.30;77.60;;;;;;5073561;28;20028;-76
2021/09/02 07:24:07;;;;;;;4.40;2.70;;;17.20;77.60;;;;;;5055563;28;20090;-76
2021/09/02 07:26:33;;;;;;;3.40;2.38;;;17.30;78.20;;;;;;5055562;28;20025;-76
2021/09/02 07:28:58;;;;;;;4.32;2.70;;;17.30;77.40;;;;;;5073453;28;20028;-76
2021/09/02 07:34:46;;;;;;;5.18;2.63;;;17.40;77.30;;;;;;5073645;28;20116;-76
2021/09/02 07:37:12;;;;;;;5.75;3.28;;;17.40;77.20;;;;;;5055432;28;20476;-76
2021/09/02 07:39:37;;;;;;;6.10;3.03;;;17.40;77.00;;;;;;5055519;28;20028;-76
2021/09/02 07:42:04;;;;;;;4.97;3.03;;;17.40;77.00;;;;;;5055282;28;20027;-76
2021/09/02 07:44:31;;;;;;;4.00;2.38;;;17.50;76.90;;;;;;5073278;28;20025;-76
2021/09/02 07:46:57;;;;;;;4.93;2.58;;;17.50;76.70;;;;;;5055375;28;20078;-76
2021/09/02 07:49:22;;;;;;;3.80;2.25;;;17.60;76.60;;;;;;5055123;28;20020;-76
2021/09/02 07:51:48;;;;;;;5.00;3.15;;;17.60;76.50;;;;;;5055092;28;20507;-76
2021/09/02 07:54:13;;;;;;;4.88;2.80;;;17.60;76.20;;;;;;5073194;28;20032;-74
2021/09/02 07:56:39;;;;;;;5.53;3.30;;;17.70;76.20;;;;;;5054749;28;20035;-72
2021/09/02 07:59:05;;;;;;;4.55;2.90;;;17.70;76.00;;;;;;5054822;28;20111;-72
2021/09/02 08:01:30;;;;;;;5.00;2.92;;;17.60;76.00;;;;;;5054379;28;20067;-72
2021/09/02 08:03:56;;;;;;;3.70;2.53;;;17.80;75.90;;;;;;5054903;28;20025;-71
2021/09/02 08:06:21;;;;;;;3.47;2.50;;;17.80;75.80;;;;;;5054906;28;20052;-72
2021/09/02 08:08:47;;;;;;;6.10;2.70;;;17.90;75.60;;;;;;5054767;28;20115;-72
2021/09/02 08:11:14;;;;;;;4.65;2.65;;;18.00;75.40;;;;;;5054835;28;20078;-73
2021/09/02 08:13:39;;;;;;;5.68;2.45;;;18.10;75.20;;;;;;5054723;28;20028;-72
2021/09/02 08:16:05;;;;;;;5.88;2.38;;;18.20;75.00;;;;;;5054604;28;20058;-72
2021/09/02 08:18:31;;;;;;;4.00;2.35;;;18.30;74.80;;;;;;5072658;28;20103;-73
2021/09/02 08:20:56;;;;;;;3.47;2.40;;;18.40;74.50;;;;;;5072735;28;20074;-72
2021/09/02 08:23:22;;;;;;;4.07;2.35;;;18.40;74.30;;;;;;5054631;28;20031;-72
2021/09/02 08:25:48;;;;;;;4.53;2.60;;;18.60;74.00;;;;;;5055031;28;20060;-73
2021/09/02 08:28:15;;;;;;;3.80;2.42;;;18.60;73.70;;;;;;5072561;28;20032;-72
2021/09/02 08:30:41;;;;;;;4.20;2.63;;;18.60;73.40;;;;;;5072405;28;20085;-73
2021/09/02 08:33:06;;;;;;;5.40;3.03;;;18.60;73.40;;;;;;5054626;28;20146;-72
2021/09/02 08:35:33;;;;;;;3.85;2.47;;;18.70;73.20;;;;;;5054372;28;20491;-72
2021/09/02 08:38:03;;;;;;;5.60;2.42;;;18.70;73.00;;;;;;5072708;28;20025;-73
2021/09/02 08:40:32;;;;;;;6.43;3.17;;;18.80;72.90;;;;;;5054365;28;20093;-72
2021/09/02 08:42:58;;;;;;;7.82;3.10;;;18.80;72.80;;;;;;5072609;28;20079;-73
2021/09/02 08:45:24;;;;;;;4.30;2.70;;;18.80;72.70;;;;;;5054523;28;20159;-73
2021/09/02 08:47:50;;;;;;;4.95;2.83;;;18.80;72.70;;;;;;5088068;28;20035;-72
2021/09/02 08:50:20;;;;;;;5.30;3.33;;;18.80;72.60;;;;;;5054556;28;20025;-73
2021/09/02 08:52:46;;;;;;;5.18;2.80;;;18.90;72.60;;;;;;5072553;28;20033;-73
2021/09/02 08:55:12;;;;;;;4.55;3.00;;;18.90;72.40;;;;;;5087735;28;20341;-73
2021/09/02 08:57:37;;;;;;;5.15;3.25;;;19.00;72.10;;;;;;5054244;28;20036;-74
2021/09/02 09:00:04;;;;;;;6.65;2.97;;;19.10;72.00;;;;;;5072286;28;20024;-74
2021/09/02 09:02:32;;;;;;;7.97;3.40;;;19.20;71.80;;;;;;5054271;28;20488;-74
2021/09/02 09:05:08;;;;;;;5.43;3.17;;;19.20;71.60;;;;;;5054220;28;20037;-74
2021/09/02 09:07:36;;;;;;;6.32;3.40;;;19.20;71.30;;;;;;5072151;28;20361;-75
2021/09/02 09:10:10;;;;;;;4.82;3.63;;;19.30;71.30;;;;;;5071857;28;20503;-75
2021/09/02 09:12:38;;;;;;;5.13;3.40;;;19.30;70.90;;;;;;5057345;28;20082;-76
2021/09/02 09:15:06;;;;;;;5.55;3.35;;;19.40;70.80;;;;;;5057565;28;20032;-74
2021/09/02 09:17:32;;;;;;;5.65;3.45;;;19.50;70.60;;;;;;5088588;28;20020;-73
2021/09/02 09:19:58;;;;;;;8.52;3.55;;;19.60;70.40;;;;;;5057884;28;20443;-72
2021/09/02 09:22:27;;;;;;;5.65;3.60;;;19.70;70.00;;;;;;5075594;28;20035;-74
2021/09/02 09:24:55;;;;;;;5.97;3.13;;;19.80;69.90;;;;;;5057441;28;20066;-73
2021/09/02 09:27:58;;;;;;;4.63;3.00;;;20.00;69.70;;;;;;5057360;28;20025;-73
2021/09/02 09:30:26;;;;;;;4.20;3.08;;;20.20;69.30;;;;;;5057120;28;20503;-72
2021/09/02 09:32:57;;;;;;;4.82;2.88;;;20.20;69.00;;;;;;5075187;28;20025;-73
2021/09/02 09:35:27;;;;;;;7.45;3.30;;;20.30;68.70;;;;;;5075293;28;20101;-72
2021/09/02 09:38:15;;;;;;;5.18;2.92;;;20.50;68.70;;;;;;5057073;28;20025;-72
2021/09/02 09:40:43;;;;;;;4.97;3.00;;;20.60;68.30;;;;;;5057317;28;20028;-72
2021/09/02 09:43:11;;;;;;;4.53;2.90;;;20.70;68.10;;;;;;5075091;28;20104;-72
2021/09/02 09:45:50;;;;;;;4.32;3.08;;;20.80;67.90;;;;;;5057111;28;20017;-73
2021/09/02 09:48:22;;;;;;;7.40;2.90;;;20.90;67.40;;;;;;5074999;28;20032;-74
2021/09/02 09:51:05;;;;;;;4.63;2.42;;;21.00;67.30;;;;;;5057069;28;20029;-74
2021/09/02 09:53:31;;;;;;;6.10;3.05;;;21.10;67.10;;;;;;5057090;28;20036;-73
2021/09/02 09:55:57;;;;;;;5.95;3.10;;;21.10;66.90;;;;;;5057240;28;20075;-73
2021/09/02 09:58:26;;;;;;;5.43;3.10;;;21.10;66.50;;;;;;5056836;28;20059;-73
2021/09/02 10:00:58;;;;;;;5.45;2.97;;;21.20;66.40;;;;;;5057161;28;20024;-73
2021/09/02 10:03:24;;;;;;;4.80;3.00;;;21.20;66.80;;;;;;5057730;28;20025;-73
2021/09/02 10:05:51;;;;;;;5.20;3.10;;;21.20;65.90;;;;;;5058582;28;20024;-74
2021/09/02 10:08:21;;;;;;;5.03;2.88;;;21.30;65.70;;;;;;5074935;28;20496;-73
2021/09/02 10:10:50;;;;;;;5.95;3.30;;;21.30;65.50;;;;;;5056874;28;20031;-74
2021/09/02 10:13:16;;;;;;;5.13;3.55;;;21.30;65.20;;;;;;5074784;28;20102;-74
2021/09/02 10:15:43;;;;;;;4.75;3.28;;;21.30;64.90;;;;;;5090481;28;20024;-73
2021/09/02 10:18:09;;;;;;;4.72;3.17;;;21.40;64.70;;;;;;5056901;28;20048;-74
2021/09/02 10:20:38;;;;;;;4.70;3.10;;;21.40;64.60;;;;;;5056944;28;20020;-73
2021/09/02 10:23:05;;;;;;;6.13;3.28;;;21.40;64.30;;;;;;5056316;28;20487;-72
2021/09/02 10:25:32;;;;;;;5.13;3.13;;;21.40;64.40;;;;;;5056683;28;20073;-73
2021/09/02 10:28:11;;;;;;;5.72;3.20;;;21.50;64.40;;;;;;5074713;28;20025;-73
2021/09/02 10:30:46;;;;;;;4.80;2.92;;;21.50;64.00;;;;;;5050023;28;20502;-74
2021/09/02 10:33:42;;;;;;;3.95;2.95;;;21.50;63.90;;;;;;5034443;28;20392;-74
2021/09/02 10:36:11;;;;;;;6.90;2.90;;;21.60;63.80;;;;;;5034387;28;20496;-75
2021/09/02 10:38:45;;;;;;;5.40;3.28;;;21.60;63.80;;;;;;5033268;28;20095;-73
2021/09/02 10:41:12;;;;;;;4.40;2.97;;;21.70;63.60;;;;;;5034531;28;20033;-73
2021/09/02 10:43:55;;;;;;;4.32;2.75;;;21.80;63.50;;;;;;5033149;28;20025;-75
2021/09/02 10:47:00;;;;;;;4.05;2.78;;;21.80;63.30;;;;;;5034395;28;20532;-73
2021/09/02 10:49:36;;;;;;;5.22;3.35;;;21.80;63.10;;;;;;5032792;28;20033;-74
2021/09/02 10:52:03;;;;;;;6.07;2.70;;;21.80;63.10;;;;;;5066320;28;20033;-74
2021/09/02 10:54:36;;;;;;;3.28;2.75;;;21.80;63.10;;;;;;5066404;28;20025;-75
2021/09/02 10:57:05;;;;;;;5.15;3.30;;;21.90;63.10;;;;;;5066863;28;20432;-76
2021/09/02 10:59:49;;;;;;;4.10;2.72;;;21.90;62.80;;;;;;5032896;28;20048;-74
2021/09/02 11:02:18;;;;;;;5.40;3.05;;;21.90;62.60;;;;;;5034196;28;20116;-75
2021/09/02 11:04:45;;;;;;;3.25;2.80;;;21.90;62.60;;;;;;5033256;28;20079;-76
2021/09/02 11:07:11;;;;;;;3.08;2.65;;;21.80;62.60;;;;;;5032907;28;20033;-75
2021/09/02 11:09:40;;;;;;;5.95;2.92;;;21.80;62.60;;;;;;5066113;28;20022;-75
2021/09/02 11:12:11;;;;;;;6.45;2.90;;;21.80;62.50;;;;;;5032650;28;20060;-75
2021/09/02 11:14:45;;;;;;;5.15;2.92;;;21.80;62.40;;;;;;5066016;28;20071;-75
2021/09/02 11:17:12;;;;;;;5.45;3.35;;;21.80;62.20;;;;;;5033992;28;20018;-73
2021/09/02 11:19:40;;;;;;;3.35;2.72;;;21.80;62.20;;;;;;5065794;28;20492;-72
2021/09/02 11:22:14;;;;;;;3.53;2.47;;;21.90;62.30;;;;;;5033612;28;20472;-71
2021/09/02 11:24:46;;;;;;;4.93;2.67;;;21.90;62.30;;;;;;5033726;28;20413;-73
2021/09/02 11:27:33;;;;;;;4.28;2.70;;;22.00;62.10;;;;;;5065623;28;20413;-73
2021/09/02 11:30:13;;;;;;;4.60;2.97;;;22.10;62.00;;;;;;5034510;28;20485;-73
2021/09/02 11:32:38;;;;;;;3.05;2.50;;;22.20;61.80;;;;;;5089061;28;20123;-72
2021/09/02 11:35:05;;;;;;;4.95;2.88;;;22.30;61.70;;;;;;5072444;28;20091;-72
2021/09/02 11:37:42;;;;;;;3.63;2.80;;;22.30;61.40;;;;;;5055290;28;20031;-72
2021/09/02 11:40:10;;;;;;;4.75;3.38;;;22.40;61.10;;;;;;5055341;28;20025;-73
2021/09/02 11:42:36;;;;;;;5.97;2.72;;;22.50;61.10;;;;;;5055586;28;20032;-73
2021/09/02 11:45:02;;;;;;;4.47;2.78;;;22.50;61.00;;;;;;5055410;28;20035;-73
2021/09/02 11:47:36;;;;;;;6.13;3.20;;;22.60;61.00;;;;;;5055341;28;20571;-74
2021/09/02 11:50:04;;;;;;;5.43;2.90;;;22.60;60.80;;;;;;5055678;28;20165;-73
2021/09/02 11:52:44;;;;;;;5.50;3.25;;;22.70;60.70;;;;;;5055206;28;20029;-74
2021/09/02 11:55:32;;;;;;;4.85;2.80;;;22.80;60.40;;;;;;5055285;28;20028;-73
2021/09/02 11:58:03;;;;;;;4.20;2.83;;;22.80;60.30;;;;;;5073337;28;20024;-75
2021/09/02 12:00:30;;;;;;;3.72;2.70;;;22.90;60.40;;;;;;5055400;28;20025;-75
2021/09/02 12:02:58;;;;;;;4.75;2.78;;;22.90;60.20;;;;;;5055333;28;20107;-74
2021/09/02 12:05:38;;;;;;;4.43;2.97;;;22.90;60.10;;;;;;5055242;28;20407;-74
2021/09/02 12:08:10;;;;;;;4.25;3.00;;;22.90;60.10;;;;;;5073342;28;20028;-74
2021/09/02 12:10:38;;;;;;;3.70;2.80;;;22.80;60.20;;;;;;5055313;28;20427;-74
2021/09/02 12:13:23;;;;;;;4.75;2.67;;;22.80;60.30;;;;;;5088615;28;20016;-74
2021/09/02 12:16:01;;;;;;;3.45;2.65;;;22.90;60.10;;;;;;5072980;28;20028;-74
2021/09/02 12:18:32;;;;;;;5.28;3.03;;;22.90;60.10;;;;;;5073322;28;20031;-73
2021/09/02 12:21:14;;;;;;;4.75;2.85;;;22.90;60.80;;;;;;5073088;28;20035;-74
2021/09/02 12:23:42;;;;;;;3.83;2.85;;;22.90;60.10;;;;;;5073089;28;20017;-74
2021/09/02 12:26:09;;;;;;;4.80;2.75;;;22.90;60.00;;;;;;5055587;28;20495;-73
2021/09/02 12:31:38;;;;;;;5.80;3.20;;;22.90;59.90;;;;;;5058254;28;20075;-74
2021/09/02 12:34:28;;;;;;;7.13;3.20;;;22.90;59.80;;;;;;5055576;28;20029;-74
2021/09/02 12:37:46;;;;;;;4.38;3.22;;;22.90;59.60;;;;;;5056314;28;20094;-74
2021/09/02 12:40:22;;;;;;;5.63;3.13;;;22.90;59.60;;;;;;5054945;28;20437;-72
2021/09/02 12:42:48;;;;;;;5.95;3.13;;;23.00;59.60;;;;;;5073082;28;20037;-73
2021/09/02 12:45:27;;;;;;;4.40;2.60;;;23.00;60.10;;;;;;5073287;28;20139;-73
2021/09/02 12:48:01;;;;;;;5.00;2.67;;;23.10;59.60;;;;;;5092601;28;20031;-73
2021/09/02 12:50:29;;;;;;;4.65;2.80;;;23.10;59.50;;;;;;5076810;28;20396;-73
2021/09/02 12:52:54;;;;;;;5.05;2.80;;;23.20;59.50;;;;;;5058789;28;20024;-74
2021/09/02 12:55:25;;;;;;;3.53;2.80;;;23.30;59.30;;;;;;5058773;28;20028;-73
2021/09/02 12:57:52;;;;;;;3.17;2.42;;;23.30;59.00;;;;;;5058638;28;20024;-73
2021/09/02 13:00:30;;;;;;;3.47;2.65;;;23.40;59.00;;;;;;5092251;28;20024;-73